Time;durP1;ratioP1;P1;durP2;ratioP2;P2;SDS_P1;SDS_P2;PMS_P1;PMS_P2;Temp;Humidity;BMP_temperature;BMP_pressure;BME280_temperature;BME280_humidity;BME280_pressure;Samples;Min_cycle;Max_cycle;Signal;HPM_P1;HPM_P2
2023/05/17 00:01:21;;;;;;;12.32;1.83;;;9.00;99.90;;;;;;5096681;28;21153;-70
2023/05/17 00:03:46;;;;;;;10.45;1.83;;;9.00;99.90;;;;;;5096973;28;20107;-69
2023/05/17 00:06:15;;;;;;;13.95;2.83;;;9.00;99.90;;;;;;5093258;28;20118;-71
2023/05/17 00:08:40;;;;;;;10.55;2.38;;;9.00;99.90;;;;;;5091042;28;20040;-70
2023/05/17 00:11:06;;;;;;;11.38;1.88;;;9.00;99.90;;;;;;5095115;28;20032;-70
2023/05/17 00:13:32;;;;;;;11.98;1.88;;;8.90;99.90;;;;;;5090890;28;20028;-69
2023/05/17 00:15:57;;;;;;;10.43;2.17;;;8.90;99.90;;;;;;5093079;28;20032;-69
2023/05/17 00:18:26;;;;;;;17.38;1.52;;;8.90;99.90;;;;;;5091911;28;20032;-70
2023/05/17 00:20:54;;;;;;;11.15;2.38;;;8.80;99.90;;;;;;5095341;28;20032;-69
2023/05/17 00:23:20;;;;;;;12.23;2.03;;;8.80;99.90;;;;;;5091449;28;20035;-70
2023/05/17 00:25:45;;;;;;;9.45;2.08;;;8.80;99.90;;;;;;5099254;28;20024;-70
2023/05/17 00:28:11;;;;;;;10.85;1.88;;;8.80;99.90;;;;;;5095779;28;20267;-70
2023/05/17 00:30:36;;;;;;;13.98;2.60;;;8.80;99.90;;;;;;5098520;28;20028;-68
2023/05/17 00:33:03;;;;;;;8.43;1.83;;;8.80;99.90;;;;;;5098029;28;20031;-69
2023/05/17 00:35:29;;;;;;;11.82;3.05;;;8.80;99.90;;;;;;5092915;28;20082;-69
2023/05/17 00:38:00;;;;;;;5.95;1.77;;;8.80;99.90;;;;;;5094866;28;20035;-69
2023/05/17 00:40:26;;;;;;;10.48;2.25;;;8.80;99.90;;;;;;5095857;28;20154;-68
2023/05/17 00:42:54;;;;;;;10.45;1.83;;;8.80;99.90;;;;;;5094384;28;20036;-69
2023/05/17 00:45:20;;;;;;;14.18;2.20;;;8.80;99.90;;;;;;5092127;28;20042;-69
2023/05/17 00:47:46;;;;;;;12.40;2.20;;;8.80;99.90;;;;;;5092310;28;20032;-68
2023/05/17 00:50:11;;;;;;;13.48;2.35;;;8.80;99.90;;;;;;5094761;28;20023;-70
2023/05/17 00:52:37;;;;;;;9.00;2.15;;;8.80;99.90;;;;;;5092376;28;20078;-70
2023/05/17 00:55:03;;;;;;;8.32;2.25;;;8.80;99.90;;;;;;5096625;28;20024;-70
2023/05/17 00:57:31;;;;;;;15.23;2.35;;;8.90;99.90;;;;;;5091301;28;20032;-69
2023/05/17 00:59:57;;;;;;;9.50;1.67;;;8.90;99.90;;;;;;5092134;28;20022;-70
2023/05/17 01:02:23;;;;;;;6.72;1.85;;;8.90;99.90;;;;;;5094800;28;20036;-68
2023/05/17 01:04:49;;;;;;;9.07;1.90;;;9.00;99.90;;;;;;5092477;28;20036;-68
2023/05/17 01:07:18;;;;;;;13.25;2.63;;;9.00;99.90;;;;;;5095729;28;20519;-69
2023/05/17 01:09:44;;;;;;;15.88;2.63;;;9.00;99.90;;;;;;5094404;28;20036;-69
2023/05/17 01:12:31;;;;;;;11.93;2.58;;;9.00;99.90;;;;;;5088676;28;20050;-69
2023/05/17 01:15:06;;;;;;;9.68;2.15;;;9.10;99.90;;;;;;5092535;28;20036;-74
2023/05/17 01:18:10;;;;;;;17.70;3.42;;;9.10;99.90;;;;;;5094150;28;20093;-69
2023/05/17 01:20:38;;;;;;;10.55;2.47;;;9.10;99.90;;;;;;5131427;27;20035;-68
2023/05/17 01:23:17;;;;;;;15.63;2.03;;;9.20;99.90;;;;;;5095083;28;20048;-70
2023/05/17 01:26:04;;;;;;;8.05;2.38;;;9.20;99.90;;;;;;5090579;28;20034;-72
2023/05/17 01:28:32;;;;;;;8.38;2.10;;;9.30;99.90;;;;;;5096397;28;20642;-69
2023/05/17 01:31:02;;;;;;;9.73;2.35;;;9.30;99.90;;;;;;5093491;28;20028;-70
2023/05/17 01:33:28;;;;;;;9.57;2.17;;;9.30;99.90;;;;;;5093782;28;20116;-69
2023/05/17 01:36:00;;;;;;;10.55;2.45;;;9.40;99.90;;;;;;5095215;28;20039;-67
2023/05/17 01:38:26;;;;;;;10.00;2.08;;;9.40;99.90;;;;;;5097365;28;20174;-69
2023/05/17 01:40:54;;;;;;;9.98;1.73;;;9.40;99.90;;;;;;5094786;27;20111;-69
2023/05/17 01:43:53;;;;;;;15.57;2.33;;;9.50;99.90;;;;;;5094187;28;20054;-69
2023/05/17 01:46:37;;;;;;;9.95;1.88;;;9.50;99.90;;;;;;5080916;28;20035;-69
2023/05/17 01:49:26;;;;;;;10.02;1.88;;;9.50;99.90;;;;;;5098093;27;20116;-67
2023/05/17 01:52:32;;;;;;;9.50;2.35;;;9.60;99.90;;;;;;5092437;28;20031;-69
2023/05/17 01:55:25;;;;;;;15.65;3.20;;;9.60;99.90;;;;;;5094167;28;20039;-69
2023/05/17 01:57:56;;;;;;;6.28;1.98;;;9.60;99.90;;;;;;5092508;28;20028;-69
2023/05/17 02:00:24;;;;;;;10.50;2.20;;;9.60;99.90;;;;;;5094790;28;20441;-68
2023/05/17 02:02:50;;;;;;;17.40;2.13;;;9.60;99.90;;;;;;5097215;28;20089;-69
2023/05/17 02:05:15;;;;;;;15.48;2.40;;;9.60;99.90;;;;;;5092487;28;20032;-69
2023/05/17 02:07:41;;;;;;;10.93;2.28;;;9.70;99.90;;;;;;5094513;28;20059;-70
2023/05/17 02:10:07;;;;;;;10.88;1.95;;;9.70;99.90;;;;;;5096464;28;20040;-69
2023/05/17 02:12:33;;;;;;;6.20;2.10;;;9.60;99.90;;;;;;5093794;27;20040;-71
2023/05/17 02:14:58;;;;;;;10.60;2.28;;;9.60;99.90;;;;;;5095343;28;20110;-68
2023/05/17 02:17:24;;;;;;;12.75;3.17;;;9.60;99.90;;;;;;5092642;27;20040;-70
2023/05/17 02:19:49;;;;;;;12.20;2.97;;;9.50;99.90;;;;;;5092631;28;20039;-70
2023/05/17 02:22:15;;;;;;;17.30;2.67;;;9.50;99.90;;;;;;5096063;28;20027;-69
2023/05/17 02:24:43;;;;;;;12.77;2.60;;;9.50;99.90;;;;;;5093125;28;20111;-69
2023/05/17 02:27:09;;;;;;;14.35;2.67;;;9.40;99.90;;;;;;5095373;28;20045;-68
2023/05/17 02:29:35;;;;;;;9.82;2.67;;;9.40;99.90;;;;;;5093375;28;20028;-69
2023/05/17 02:32:05;;;;;;;13.57;1.75;;;9.40;99.90;;;;;;5097485;28;20376;-68
2023/05/17 02:34:33;;;;;;;19.83;2.13;;;9.40;99.90;;;;;;5088233;28;20071;-68
2023/05/17 02:37:01;;;;;;;11.60;2.70;;;9.30;99.90;;;;;;5086492;28;20028;-70
2023/05/17 02:39:27;;;;;;;11.60;1.67;;;9.30;99.90;;;;;;5084740;28;20036;-69
2023/05/17 02:41:52;;;;;;;12.30;2.70;;;9.30;99.90;;;;;;5086079;28;20039;-70
2023/05/17 02:44:18;;;;;;;8.10;2.17;;;9.30;99.90;;;;;;5084500;28;20039;-70
2023/05/17 02:46:46;;;;;;;9.50;2.67;;;9.30;99.90;;;;;;5085017;28;20063;-70
2023/05/17 02:49:12;;;;;;;13.23;2.40;;;9.30;99.90;;;;;;5085892;28;20051;-70
2023/05/17 02:51:37;;;;;;;15.55;4.55;;;9.30;99.90;;;;;;5086322;28;20036;-70
2023/05/17 02:54:03;;;;;;;10.05;2.38;;;9.30;99.90;;;;;;5081190;28;20035;-69
2023/05/17 02:56:31;;;;;;;9.85;2.40;;;9.30;99.90;;;;;;5086237;28;20419;-69
2023/05/17 02:59:04;;;;;;;11.55;2.00;;;9.30;99.90;;;;;;5085374;28;20035;-71
2023/05/17 03:01:29;;;;;;;7.60;2.15;;;9.30;99.90;;;;;;5085767;28;20042;-69
2023/05/17 03:04:05;;;;;;;13.20;2.58;;;9.30;99.90;;;;;;5094810;28;20388;-69
2023/05/17 03:06:33;;;;;;;6.90;2.03;;;9.20;99.90;;;;;;5092926;28;20035;-69
2023/05/17 03:08:59;;;;;;;16.15;3.30;;;9.20;99.90;;;;;;5092376;28;20055;-69
2023/05/17 03:11:28;;;;;;;21.80;4.10;;;9.20;99.90;;;;;;5086529;27;20067;-70
2023/05/17 03:13:53;;;;;;;10.20;3.38;;;9.20;99.90;;;;;;5086189;28;20032;-69
2023/05/17 03:16:22;;;;;;;9.43;2.75;;;9.20;99.90;;;;;;5092851;28;20552;-70
2023/05/17 03:18:50;;;;;;;10.05;2.97;;;9.10;99.90;;;;;;5090680;28;20033;-70
2023/05/17 03:21:15;;;;;;;14.05;2.70;;;9.10;99.90;;;;;;5085311;28;20089;-69
2023/05/17 03:23:44;;;;;;;15.30;2.88;;;9.10;99.90;;;;;;5084488;28;20043;-70
2023/05/17 03:26:10;;;;;;;9.80;2.20;;;9.00;99.90;;;;;;5092449;28;20035;-68
2023/05/17 03:28:35;;;;;;;14.10;3.35;;;9.10;99.90;;;;;;5088540;28;20054;-70
2023/05/17 03:31:01;;;;;;;14.07;2.85;;;9.10;99.90;;;;;;5081927;28;20093;-70
2023/05/17 03:33:30;;;;;;;12.25;2.88;;;9.10;99.90;;;;;;5087132;28;22183;-70
2023/05/17 03:35:55;;;;;;;12.95;2.70;;;9.20;99.90;;;;;;5095159;28;20047;-70
2023/05/17 03:38:22;;;;;;;13.57;3.15;;;9.30;99.90;;;;;;5092188;28;20036;-70
2023/05/17 03:40:52;;;;;;;13.75;4.20;;;9.30;99.90;;;;;;5093650;28;20052;-69
2023/05/17 03:43:17;;;;;;;6.80;1.85;;;9.40;99.90;;;;;;5084700;28;20036;-70
2023/05/17 03:45:46;;;;;;;12.68;1.80;;;9.30;99.90;;;;;;5092827;28;20077;-69
2023/05/17 03:48:11;;;;;;;12.57;1.98;;;9.30;99.90;;;;;;5090286;28;20410;-69
2023/05/17 03:50:39;;;;;;;16.80;3.00;;;9.30;99.90;;;;;;5093809;28;20039;-68
2023/05/17 03:53:08;;;;;;;14.30;2.35;;;9.30;99.90;;;;;;5096938;28;20035;-69
2023/05/17 03:55:34;;;;;;;17.52;2.25;;;9.20;99.90;;;;;;5092295;28;20031;-68
2023/05/17 03:57:59;;;;;;;9.27;1.92;;;9.20;99.90;;;;;;5083749;28;20687;-69
2023/05/17 04:00:25;;;;;;;12.10;3.05;;;9.20;99.90;;;;;;5086934;28;20909;-71
2023/05/17 04:02:51;;;;;;;7.63;1.33;;;9.20;99.90;;;;;;5088182;28;20032;-69
2023/05/17 04:05:17;;;;;;;13.98;1.42;;;9.20;99.90;;;;;;5087268;28;20404;-67
2023/05/17 04:07:46;;;;;;;7.97;2.25;;;9.20;99.90;;;;;;5087517;28;20032;-69
2023/05/17 04:10:11;;;;;;;15.07;1.90;;;9.10;99.90;;;;;;5086789;28;20033;-69
2023/05/17 04:12:37;;;;;;;15.60;3.15;;;9.10;99.90;;;;;;5087765;28;20032;-69
2023/05/17 04:15:03;;;;;;;15.10;1.73;;;9.10;99.90;;;;;;5095008;28;20028;-69
2023/05/17 04:17:29;;;;;;;17.42;2.30;;;9.10;99.90;;;;;;5090708;28;20028;-70
2023/05/17 04:19:55;;;;;;;13.05;2.20;;;9.10;99.90;;;;;;5087385;28;20059;-69
2023/05/17 04:22:20;;;;;;;12.77;1.40;;;9.10;99.90;;;;;;5087646;28;20028;-70
2023/05/17 04:24:52;;;;;;;11.75;2.30;;;9.10;99.90;;;;;;5088835;28;20066;-70
2023/05/17 04:27:17;;;;;;;13.55;1.20;;;9.20;99.90;;;;;;5091671;28;20031;-69
2023/05/17 04:29:45;;;;;;;13.60;1.42;;;9.10;99.90;;;;;;5092804;28;20055;-70
2023/05/17 04:32:11;;;;;;;13.60;1.55;;;9.20;99.90;;;;;;5091139;28;20043;-70
2023/05/17 04:34:37;;;;;;;14.98;1.92;;;9.10;99.90;;;;;;5092138;28;20032;-70
2023/05/17 04:37:02;;;;;;;12.27;2.38;;;9.10;99.90;;;;;;5092754;28;20035;-69
2023/05/17 04:39:28;;;;;;;10.57;2.55;;;9.10;99.90;;;;;;5091639;28;20377;-70
2023/05/17 04:41:54;;;;;;;13.68;1.40;;;9.20;99.90;;;;;;5091495;27;20044;-69
2023/05/17 04:44:19;;;;;;;8.68;1.73;;;9.20;99.90;;;;;;5096683;28;20115;-70
2023/05/17 04:46:45;;;;;;;12.00;1.50;;;9.20;99.90;;;;;;5098375;28;20032;-70
2023/05/17 04:49:10;;;;;;;9.43;2.15;;;9.20;99.90;;;;;;5093503;28;20039;-69
2023/05/17 04:51:42;;;;;;;7.43;1.58;;;9.20;99.90;;;;;;5094013;28;20039;-70
2023/05/17 04:54:07;;;;;;;11.38;1.48;;;9.20;99.90;;;;;;5094390;28;20031;-74
2023/05/17 04:56:35;;;;;;;8.00;1.42;;;9.20;99.90;;;;;;5095108;28;20036;-69
2023/05/17 04:59:01;;;;;;;9.98;1.50;;;9.20;99.90;;;;;;5089248;28;20036;-69
2023/05/17 05:01:29;;;;;;;9.48;1.40;;;9.30;99.90;;;;;;5125450;27;20124;-71
2023/05/17 05:03:56;;;;;;;8.30;1.88;;;9.30;99.90;;;;;;5098423;28;20110;-69
2023/05/17 05:06:21;;;;;;;8.40;1.40;;;9.40;99.90;;;;;;5095677;28;20040;-69
2023/05/17 05:08:47;;;;;;;8.23;1.90;;;9.40;99.90;;;;;;5094908;28;20032;-69
2023/05/17 05:11:13;;;;;;;12.20;1.33;;;9.40;99.90;;;;;;5092578;28;20040;-72
2023/05/17 05:13:40;;;;;;;13.00;2.55;;;9.50;99.90;;;;;;5092757;28;20039;-70
2023/05/17 05:16:06;;;;;;;9.05;1.80;;;9.60;99.90;;;;;;5091866;28;20032;-68
2023/05/17 05:18:32;;;;;;;9.45;1.52;;;9.70;99.90;;;;;;5089869;28;20031;-68
2023/05/17 05:20:58;;;;;;;11.05;1.95;;;9.70;99.90;;;;;;5092326;28;20411;-69
2023/05/17 05:23:23;;;;;;;11.35;2.53;;;9.80;99.90;;;;;;5094460;27;20114;-71
2023/05/17 05:25:49;;;;;;;11.10;2.42;;;9.90;99.90;;;;;;5097770;28;20027;-70
2023/05/17 05:28:15;;;;;;;9.10;1.05;;;9.90;99.90;;;;;;5093726;28;20040;-70
2023/05/17 05:30:40;;;;;;;9.82;1.50;;;10.00;99.90;;;;;;5094297;28;20115;-70
2023/05/17 05:33:06;;;;;;;12.93;2.33;;;10.20;99.90;;;;;;5095691;28;20031;-71
2023/05/17 05:35:32;;;;;;;9.45;1.23;;;10.40;99.90;;;;;;5089960;28;20453;-71
2023/05/17 05:38:00;;;;;;;9.80;1.45;;;10.60;99.90;;;;;;5093430;28;20076;-70
2023/05/17 05:40:26;;;;;;;7.32;1.02;;;10.90;99.90;;;;;;5089701;28;20703;-69
2023/05/17 05:42:52;;;;;;;13.68;2.30;;;11.20;99.90;;;;;;5096084;28;20053;-71
2023/05/17 05:45:18;;;;;;;8.50;2.03;;;11.60;99.90;;;;;;5093654;28;20031;-70
2023/05/17 05:47:46;;;;;;;15.57;1.92;;;12.00;99.90;;;;;;5096088;28;20064;-70
2023/05/17 05:50:12;;;;;;;10.02;2.03;;;12.50;99.90;;;;;;5092277;28;20036;-70
2023/05/17 05:52:37;;;;;;;8.00;0.98;;;12.80;99.90;;;;;;5093198;28;20480;-71
2023/05/17 05:55:06;;;;;;;7.80;1.60;;;13.30;99.90;;;;;;5096465;28;20027;-71
2023/05/17 05:57:32;;;;;;;7.28;1.15;;;13.80;99.90;;;;;;5093190;28;20686;-71
2023/05/17 05:59:57;;;;;;;13.98;1.48;;;14.40;99.90;;;;;;5098739;28;20020;-71
2023/05/17 06:02:23;;;;;;;10.73;1.27;;;15.10;99.90;;;;;;5091540;28;20028;-71
2023/05/17 06:04:49;;;;;;;4.85;1.40;;;15.90;99.90;;;;;;5095902;28;20034;-69
2023/05/17 06:07:14;;;;;;;9.50;1.85;;;17.10;99.90;;;;;;5090664;28;20024;-70
2023/05/17 06:09:41;;;;;;;11.98;1.60;;;18.00;99.90;;;;;;5094904;27;20036;-71
2023/05/17 06:12:06;;;;;;;12.63;1.63;;;18.80;99.90;;;;;;5097885;28;20023;-71
2023/05/17 06:14:32;;;;;;;7.30;1.70;;;19.60;98.10;;;;;;5093035;28;20419;-72
2023/05/17 06:16:58;;;;;;;9.90;1.58;;;20.00;96.20;;;;;;5094440;28;20056;-70
2023/05/17 06:19:23;;;;;;;10.20;2.55;;;20.40;96.20;;;;;;5094452;28;20477;-68
2023/05/17 06:21:52;;;;;;;6.47;1.55;;;20.40;95.00;;;;;;5096757;28;20222;-71
2023/05/17 06:24:17;;;;;;;6.82;1.55;;;20.90;95.00;;;;;;5095556;27;20121;-69
2023/05/17 06:26:43;;;;;;;11.00;1.90;;;20.20;94.30;;;;;;5093073;28;20170;-71
2023/05/17 06:29:09;;;;;;;12.45;1.90;;;20.20;95.50;;;;;;5097491;28;20063;-71
2023/05/17 06:31:37;;;;;;;7.55;1.58;;;20.70;94.50;;;;;;5101201;28;20032;-72
2023/05/17 06:34:06;;;;;;;12.48;1.90;;;20.50;93.90;;;;;;5096581;28;20047;-72
2023/05/17 06:36:34;;;;;;;10.75;2.13;;;19.80;93.40;;;;;;5095529;28;20032;-70
2023/05/17 06:39:00;;;;;;;5.60;1.23;;;20.00;93.60;;;;;;5096495;27;20119;-71
2023/05/17 06:41:25;;;;;;;6.35;1.17;;;19.10;93.70;;;;;;5096008;28;20142;-70
2023/05/17 06:43:51;;;;;;;6.95;1.10;;;18.60;94.30;;;;;;5097306;28;20042;-70
2023/05/17 06:46:20;;;;;;;10.63;1.85;;;18.70;95.50;;;;;;5094599;28;20090;-69
2023/05/17 06:48:45;;;;;;;8.82;1.42;;;19.20;94.60;;;;;;5094040;28;20043;-71
2023/05/17 06:51:11;;;;;;;6.60;1.95;;;20.10;94.00;;;;;;5095845;27;20047;-70
2023/05/17 06:53:36;;;;;;;6.97;1.30;;;21.10;93.10;;;;;;5096169;28;20458;-71
2023/05/17 06:56:02;;;;;;;7.25;1.95;;;21.60;92.00;;;;;;5094477;28;20051;-70
2023/05/17 06:58:31;;;;;;;7.05;1.20;;;22.10;90.30;;;;;;5086575;28;20131;-69
2023/05/17 07:00:57;;;;;;;6.22;1.10;;;21.60;90.00;;;;;;5093590;28;20028;-68
2023/05/17 07:03:25;;;;;;;12.18;2.38;;;21.40;90.60;;;;;;5084822;28;20173;-68
2023/05/17 07:05:54;;;;;;;10.45;1.30;;;21.10;90.30;;;;;;5093727;28;20085;-68
2023/05/17 07:08:20;;;;;;;7.28;1.42;;;20.70;90.90;;;;;;5084599;28;20189;-71
2023/05/17 07:10:51;;;;;;;9.23;1.35;;;19.90;90.80;;;;;;5086899;28;21672;-69
2023/05/17 07:13:17;;;;;;;3.72;1.23;;;19.30;91.50;;;;;;5085795;28;20582;-69
2023/05/17 07:15:45;;;;;;;6.95;1.35;;;18.30;92.60;;;;;;5093427;28;20027;-69
2023/05/17 07:18:11;;;;;;;5.80;1.40;;;18.30;94.00;;;;;;5088797;28;20081;-69
2023/05/17 07:20:37;;;;;;;7.28;1.20;;;19.00;93.20;;;;;;5085124;28;20103;-70
2023/05/17 07:23:05;;;;;;;5.32;0.93;;;20.10;92.00;;;;;;5085553;28;20837;-68
2023/05/17 07:25:30;;;;;;;5.75;1.35;;;20.80;91.40;;;;;;5084411;28;20039;-69
2023/05/17 07:27:59;;;;;;;5.53;1.40;;;21.40;89.80;;;;;;5086726;28;20040;-69
2023/05/17 07:30:28;;;;;;;3.65;0.93;;;21.40;88.80;;;;;;5086553;28;20409;-71
2023/05/17 07:32:53;;;;;;;10.02;1.27;;;20.70;89.40;;;;;;5091025;28;20029;-69
2023/05/17 07:35:19;;;;;;;8.90;1.80;;;19.40;91.00;;;;;;5087064;28;20024;-69
2023/05/17 07:37:48;;;;;;;4.80;0.85;;;18.80;92.00;;;;;;5086637;28;20032;-71
2023/05/17 07:40:13;;;;;;;6.07;0.98;;;19.30;92.20;;;;;;5086101;28;20391;-69
2023/05/17 07:42:39;;;;;;;10.25;0.90;;;19.50;91.20;;;;;;5094582;28;20028;-68
2023/05/17 07:45:05;;;;;;;7.32;1.13;;;19.70;90.90;;;;;;5086118;28;20043;-70
2023/05/17 07:47:31;;;;;;;7.00;0.98;;;19.50;91.70;;;;;;5085230;28;20040;-71
2023/05/17 07:49:59;;;;;;;3.83;0.95;;;19.00;90.30;;;;;;5088185;28;20036;-70
2023/05/17 07:52:31;;;;;;;4.38;0.70;;;18.80;90.80;;;;;;5093965;28;20043;-72
2023/05/17 07:54:59;;;;;;;6.78;1.08;;;18.40;91.10;;;;;;5090170;28;20047;-70
2023/05/17 07:57:26;;;;;;;7.40;1.23;;;17.70;90.80;;;;;;5095259;28;20044;-69
2023/05/17 07:59:51;;;;;;;5.13;0.98;;;17.30;92.30;;;;;;5092065;28;20028;-70
2023/05/17 08:02:17;;;;;;;4.32;0.77;;;17.10;92.40;;;;;;5097947;28;20534;-70
2023/05/17 08:04:43;;;;;;;4.43;0.57;;;16.80;92.50;;;;;;5094510;28;20689;-69
2023/05/17 08:07:08;;;;;;;3.28;0.50;;;16.50;92.60;;;;;;5094286;28;20032;-71
2023/05/17 08:09:34;;;;;;;3.33;0.60;;;16.40;92.80;;;;;;5092603;28;20531;-69
2023/05/17 08:12:02;;;;;;;6.07;1.00;;;16.40;93.50;;;;;;5094002;28;20031;-71
2023/05/17 08:14:31;;;;;;;4.18;0.40;;;16.50;92.30;;;;;;5095894;28;20914;-69
2023/05/17 08:16:57;;;;;;;4.72;0.60;;;16.40;91.90;;;;;;5095789;28;20024;-71
2023/05/17 08:19:26;;;;;;;5.53;0.70;;;16.50;91.70;;;;;;5090015;28;20054;-69
2023/05/17 08:21:51;;;;;;;5.50;0.47;;;16.40;91.50;;;;;;5090319;28;20032;-71
2023/05/17 08:24:17;;;;;;;10.43;1.25;;;16.20;91.90;;;;;;5090113;28;20449;-69
2023/05/17 08:26:42;;;;;;;5.03;0.82;;;16.20;91.90;;;;;;5093518;28;20115;-69
2023/05/17 08:29:08;;;;;;;3.80;0.50;;;16.10;92.20;;;;;;5091966;28;20522;-75
2023/05/17 08:31:33;;;;;;;3.47;0.70;;;16.20;92.90;;;;;;5092834;28;20024;-71
2023/05/17 08:33:59;;;;;;;2.25;0.40;;;16.20;91.70;;;;;;5091107;28;20038;-70
2023/05/17 08:36:25;;;;;;;5.55;0.80;;;16.10;91.70;;;;;;5096843;28;20047;-69
2023/05/17 08:38:51;;;;;;;2.05;0.65;;;16.10;92.10;;;;;;5097483;27;20143;-69
2023/05/17 08:41:17;;;;;;;2.25;0.60;;;16.00;92.60;;;;;;5097773;28;20821;-70
2023/05/17 08:43:47;;;;;;;5.60;0.80;;;16.00;93.20;;;;;;5096208;28;20044;-70
2023/05/17 08:46:14;;;;;;;6.28;0.57;;;16.10;92.40;;;;;;5097823;28;20052;-70
2023/05/17 08:48:42;;;;;;;5.85;0.60;;;16.20;92.10;;;;;;5095509;28;20035;-71
2023/05/17 08:51:10;;;;;;;5.00;0.77;;;16.20;91.70;;;;;;5097880;28;20119;-71
2023/05/17 08:53:36;;;;;;;5.38;0.80;;;16.20;91.70;;;;;;5094745;28;20108;-70
2023/05/17 08:56:06;;;;;;;6.20;0.93;;;16.00;91.30;;;;;;5097134;28;20047;-70
2023/05/17 08:58:36;;;;;;;4.38;0.50;;;16.00;92.00;;;;;;5095449;28;20051;-70
2023/05/17 09:01:03;;;;;;;5.27;0.60;;;16.00;92.10;;;;;;5097129;28;20042;-70
2023/05/17 09:03:29;;;;;;;5.97;1.00;;;16.10;92.20;;;;;;5095305;28;20043;-70
2023/05/17 09:05:57;;;;;;;3.92;0.70;;;16.10;91.70;;;;;;5091628;28;20122;-70
2023/05/17 09:08:27;;;;;;;1.80;0.40;;;16.20;91.70;;;;;;5096905;28;20035;-70
2023/05/17 09:10:58;;;;;;;;;;;16.00;91.60;;;;;;5092462;28;20032;-69
2023/05/17 09:13:24;;;;;;;2.97;0.50;;;16.20;92.50;;;;;;5086826;28;19912;-71
2023/05/17 09:15:50;;;;;;;3.10;0.75;;;16.30;92.40;;;;;;5095455;28;20032;-70
2023/05/17 09:18:16;;;;;;;12.98;0.85;;;16.50;92.30;;;;;;5096391;28;20545;-70
2023/05/17 09:20:48;;;;;;;8.77;0.57;;;16.60;92.30;;;;;;5088099;28;20032;-69
2023/05/17 09:23:14;;;;;;;5.07;0.70;;;16.40;91.90;;;;;;5086429;28;20395;-69
2023/05/17 09:25:47;;;;;;;6.13;0.70;;;16.20;92.40;;;;;;5096829;28;20047;-71
2023/05/17 09:28:13;;;;;;;5.13;0.50;;;16.10;92.70;;;;;;5089537;28;20043;-69
2023/05/17 09:30:40;;;;;;;6.13;1.05;;;15.80;92.80;;;;;;5095802;28;20028;-70
2023/05/17 09:33:08;;;;;;;4.53;0.50;;;15.70;93.30;;;;;;5095827;27;20161;-69
2023/05/17 09:35:34;;;;;;;5.03;0.30;;;15.70;93.20;;;;;;5094008;28;20032;-69
2023/05/17 09:38:08;;;;;;;4.93;0.45;;;15.80;91.20;;;;;;5096519;28;20028;-70
2023/05/17 09:40:39;;;;;;;3.10;0.50;;;15.90;91.30;;;;;;5091170;28;20399;-70
2023/05/17 09:43:09;;;;;;;3.42;0.40;;;15.90;91.10;;;;;;5091015;28;20029;-70
2023/05/17 09:45:35;;;;;;;6.27;0.77;;;16.00;92.20;;;;;;5096502;28;20399;-69
2023/05/17 09:48:17;;;;;;;4.22;0.50;;;16.00;91.70;;;;;;5092954;28;20365;-70
2023/05/17 09:50:45;;;;;;;3.33;0.30;;;16.00;91.90;;;;;;5086130;28;20030;-70
2023/05/17 09:53:37;;;;;;;9.02;0.82;;;16.10;92.20;;;;;;5092355;28;20020;-67
2023/05/17 09:56:04;;;;;;;5.85;0.93;;;16.10;92.10;;;;;;5097127;27;20098;-70
2023/05/17 09:58:36;;;;;;;4.53;0.70;;;16.10;92.50;;;;;;5093860;28;20035;-68
2023/05/17 10:01:07;;;;;;;4.63;0.95;;;16.10;91.90;;;;;;5096307;28;20016;-70
2023/05/17 10:03:35;;;;;;;8.45;0.68;;;16.00;91.60;;;;;;5094946;27;20056;-71
2023/05/17 10:06:04;;;;;;;4.57;0.77;;;16.20;92.40;;;;;;5091767;28;20067;-69
2023/05/17 10:08:33;;;;;;;4.20;0.65;;;16.20;92.10;;;;;;5092983;28;20035;-69
2023/05/17 10:11:04;;;;;;;6.13;0.68;;;16.40;92.30;;;;;;5091702;28;20036;-71
2023/05/17 10:13:53;;;;;;;4.97;0.40;;;16.50;91.40;;;;;;5092376;28;20069;-70
2023/05/17 10:16:21;;;;;;;3.40;0.32;;;16.40;91.20;;;;;;5089250;28;20035;-70
2023/05/17 10:18:48;;;;;;;3.20;0.60;;;16.30;92.00;;;;;;5095107;28;20043;-69
2023/05/17 10:21:21;;;;;;;3.60;0.38;;;16.20;91.30;;;;;;5097789;27;20134;-72
2023/05/17 10:23:48;;;;;;;3.55;0.50;;;16.10;90.90;;;;;;5094123;27;20035;-70
2023/05/17 10:26:16;;;;;;;3.47;0.52;;;15.90;91.30;;;;;;5095960;27;20039;-69
2023/05/17 10:28:49;;;;;;;1.48;0.40;;;15.90;91.40;;;;;;5093037;28;20064;-70
2023/05/17 10:31:15;;;;;;;5.55;0.90;;;16.00;91.50;;;;;;5089671;28;20118;-69
2023/05/17 10:33:50;;;;;;;5.47;0.50;;;16.10;91.30;;;;;;5092518;28;20522;-70
2023/05/17 10:36:16;;;;;;;6.00;0.63;;;16.10;91.70;;;;;;5087211;28;20035;-70
2023/05/17 10:38:42;;;;;;;3.63;0.80;;;16.00;91.20;;;;;;5096506;28;20036;-71
2023/05/17 10:41:16;;;;;;;3.90;0.50;;;15.90;91.40;;;;;;5093679;28;20051;-70
2023/05/17 10:43:48;;;;;;;7.00;0.40;;;16.00;91.50;;;;;;5090849;28;20040;-69
2023/05/17 10:46:21;;;;;;;4.03;0.57;;;15.90;92.10;;;;;;5091200;28;20036;-70
2023/05/17 10:48:57;;;;;;;4.97;0.98;;;16.10;92.70;;;;;;5094473;28;20070;-70
2023/05/17 10:51:31;;;;;;;2.13;0.40;;;16.10;91.80;;;;;;5094415;28;20043;-70
2023/05/17 10:54:17;;;;;;;7.65;1.20;;;16.20;91.50;;;;;;5097284;28;20031;-69
2023/05/17 10:56:50;;;;;;;3.60;0.40;;;16.20;91.50;;;;;;5087978;28;20039;-71
2023/05/17 10:59:21;;;;;;;3.97;0.60;;;16.20;91.40;;;;;;5092866;28;20031;-70
2023/05/17 11:01:58;;;;;;;3.42;0.70;;;16.20;91.80;;;;;;5091794;28;20487;-69
2023/05/17 11:04:38;;;;;;;4.75;0.50;;;16.40;92.00;;;;;;5090107;28;20514;-70
2023/05/17 11:07:16;;;;;;;5.05;0.60;;;16.30;91.30;;;;;;5093571;28;20080;-69
2023/05/17 11:10:09;;;;;;;2.20;0.40;;;16.30;91.80;;;;;;5085224;28;20044;-69
2023/05/17 11:12:36;;;;;;;7.45;1.00;;;16.20;92.20;;;;;;5071716;28;20047;-70
2023/05/17 11:15:16;;;;;;;6.88;0.70;;;16.20;91.40;;;;;;5084422;28;20540;-71
2023/05/17 11:17:45;;;;;;;3.17;0.93;;;16.20;91.60;;;;;;5084494;28;20403;-68
2023/05/17 11:20:13;;;;;;;8.15;0.82;;;16.10;91.00;;;;;;5085393;28;20120;-71
2023/05/17 11:22:41;;;;;;;6.70;0.73;;;16.20;91.30;;;;;;5088734;28;20653;-71
2023/05/17 11:25:12;;;;;;;2.75;0.60;;;16.10;91.40;;;;;;5084668;28;20213;-68
2023/05/17 11:27:50;;;;;;;;;;;16.20;91.70;;;;;;5086132;28;20487;-68
2023/05/17 11:30:25;;;;;;;4.85;0.50;;;16.20;92.40;;;;;;5084142;28;19963;-70
2023/05/17 11:32:53;;;;;;;4.63;0.50;;;16.10;91.30;;;;;;5090704;28;20120;-69
2023/05/17 11:35:26;;;;;;;4.68;0.77;;;16.10;91.90;;;;;;5084013;28;20114;-69
2023/05/17 11:37:53;;;;;;;3.50;0.60;;;16.20;91.30;;;;;;5084662;28;20024;-69
2023/05/17 11:40:29;;;;;;;4.78;0.73;;;16.10;91.40;;;;;;5088795;28;20032;-69
2023/05/17 11:43:10;;;;;;;4.63;0.50;;;16.10;91.60;;;;;;5093641;28;20038;-70
2023/05/17 11:45:47;;;;;;;4.85;1.25;;;16.20;92.10;;;;;;5079862;28;20580;-69
2023/05/17 11:48:13;;;;;;;3.45;0.55;;;16.20;91.60;;;;;;5085786;28;20039;-70
2023/05/17 11:50:43;;;;;;;4.70;1.13;;;16.20;91.20;;;;;;5087975;28;20039;-68
2023/05/17 11:53:10;;;;;;;5.15;0.90;;;16.20;91.00;;;;;;5092816;28;20074;-71
2023/05/17 11:55:40;;;;;;;7.75;1.05;;;16.00;90.90;;;;;;5093795;28;20032;-70
2023/05/17 11:58:15;;;;;;;4.87;0.50;;;16.00;91.90;;;;;;5091666;28;20020;-70
2023/05/17 12:00:42;;;;;;;7.20;0.93;;;15.80;91.50;;;;;;5086719;28;20053;-71
2023/05/17 12:03:34;;;;;;;6.10;0.60;;;15.80;91.90;;;;;;5085110;28;20033;-70
2023/05/17 12:06:16;;;;;;;3.67;0.88;;;15.80;92.40;;;;;;5083012;28;20035;-72
2023/05/17 12:08:44;;;;;;;3.78;0.80;;;15.80;92.30;;;;;;5115963;27;20078;-70
2023/05/17 12:11:16;;;;;;;5.38;1.00;;;15.90;91.90;;;;;;5084156;28;20063;-71
2023/05/17 12:13:42;;;;;;;9.10;1.55;;;15.90;91.80;;;;;;5085908;28;20040;-70
2023/05/17 12:16:19;;;;;;;8.35;1.05;;;15.80;91.70;;;;;;5085695;28;20089;-71
2023/05/17 12:18:50;;;;;;;6.35;1.10;;;15.60;91.30;;;;;;5085018;28;20062;-71
2023/05/17 12:21:17;;;;;;;2.88;0.68;;;15.60;92.20;;;;;;5093827;28;20024;-72
2023/05/17 12:23:47;;;;;;;11.45;1.10;;;15.60;92.70;;;;;;5091286;28;20365;-71
2023/05/17 12:26:15;;;;;;;3.90;0.90;;;15.70;92.40;;;;;;5084629;28;20063;-69
2023/05/17 12:28:59;;;;;;;7.53;1.15;;;15.60;92.30;;;;;;5090981;28;20499;-69
2023/05/17 12:31:29;;;;;;;7.45;0.75;;;15.60;91.90;;;;;;5086201;28;20052;-69
2023/05/17 12:34:00;;;;;;;7.32;1.10;;;15.60;92.00;;;;;;5087596;28;20036;-69
2023/05/17 12:36:32;;;;;;;4.07;0.55;;;15.60;93.00;;;;;;5086336;28;20127;-69
2023/05/17 12:38:58;;;;;;;7.60;0.70;;;15.50;92.50;;;;;;5089381;28;20059;-68
2023/05/17 12:41:25;;;;;;;4.88;0.93;;;15.50;92.70;;;;;;5086537;28;20028;-69
2023/05/17 12:43:51;;;;;;;8.52;0.70;;;15.40;92.80;;;;;;5088712;28;20043;-68
2023/05/17 12:46:22;;;;;;;7.95;0.95;;;15.50;92.40;;;;;;5087520;28;20028;-69
2023/05/17 12:48:50;;;;;;;3.58;0.55;;;15.30;91.40;;;;;;5091584;28;20123;-68
2023/05/17 12:51:20;;;;;;;10.93;1.85;;;15.30;92.20;;;;;;5087450;28;20028;-68
2023/05/17 12:53:48;;;;;;;10.50;1.67;;;15.30;92.20;;;;;;5098643;28;20023;-68
2023/05/17 12:56:22;;;;;;;6.47;1.00;;;15.30;92.20;;;;;;5095039;27;20060;-70